• Join FlightAware (Why Join?)
  • Login
  • US Flag 
01:56AM EDT


 

Airport Tracker/Info


-or-


 

Live Flight TrackerFlight Track Log ✈ EJA727 ✈ 11-May-2013 ✈ KSAF - KDAL

Flight Track Log - Related Links

Times and Time Zones

All times are in EDT time to prevent confusion due to time zone crossing. See the EJA727 flight status page for this flight to view local times or setup timezone preferences in your user account.

Time Position Orientation Groundspeed Altitude Reporting Facility
EDT Latitude Longitude Course Direction KTS MPH feet Rate Location/Type
09:20AM 35.6378 -106.0669 114° Southeast 188 216 8,100  Level Albuquerque Center
09:21AM 35.6331 -105.9961 95° East 212 244 12,100 3,660 Climbing Albuquerque Center
09:22AM 35.6006 -105.9036 113° Southeast 276 318 15,600 3,420 Climbing Albuquerque Center
09:23AM 35.5614 -105.7942 114° Southeast 328 377 19,000 3,480 Climbing Albuquerque Center
09:24AM 35.5208 -105.6767 113° Southeast 361 415 22,700 3,060 Climbing Albuquerque Center
09:25AM 35.3601 -105.3401 114° Southeast  Level FlightAware Approximate
09:25AM 35.4783 -105.5536 113° Southeast 381 438 25,200  Level Albuquerque Center
09:26AM 35.4311 -105.4228 114° Southeast 410 472 27,600 2,100 Climbing Albuquerque Center
09:27AM 35.3864 -105.2886 112° Southeast 421 484 29,500 1,680 Climbing Albuquerque Center
09:28AM 35.3383 -105.1483 113° Southeast 438 504 31,100 1,680 Climbing Albuquerque Center
09:29AM 35.2886 -105.0117 114° Southeast 439 505 33,000 900 Climbing Albuquerque Center
09:30AM 35.2375 -104.8714 114° Southeast 446 513 33,000  Level Albuquerque Center
09:31AM 35.1864 -104.7261 113° Southeast 458 527 33,000  Level Albuquerque Center
09:32AM 35.1372 -104.5886 114° Southeast 446 513 33,000  Level Albuquerque Center
09:33AM 35.0939 -104.4631 113° Southeast 424 488 33,000  Level Albuquerque Center
09:34AM 35.0447 -104.3308 114° Southeast 415 478 33,000  Level Albuquerque Center
09:35AM 34.9994 -104.2044 114° Southeast 410 472 33,000  Level Albuquerque Center
09:36AM 34.9544 -104.0783 113° Southeast 407 468 33,000  Level Albuquerque Center
09:37AM 34.9083 -103.9522 114° Southeast 407 468 33,000  Level Albuquerque Center
09:38AM 34.8544 -103.8036 114° Southeast 408 470 33,000  Level Albuquerque Center
09:39AM 34.8069 -103.6758 114° Southeast 411 473 33,000  Level Albuquerque Center
09:40AM 34.7589 -103.5439 114° Southeast 419 482 33,000  Level Albuquerque Center
09:41AM 34.7086 -103.4075 114° Southeast 435 501 33,000  Level Albuquerque Center
09:42AM 34.6569 -103.2700 115° Southeast 441 507 33,000  Level Albuquerque Center
09:43AM 34.6056 -103.1336 115° Southeast 441 507 33,000  Level Albuquerque Center
09:44AM 34.5542 -102.9975 115° Southeast 441 507 33,000  Level Albuquerque Center
09:45AM 34.5053 -102.8619 114° Southeast 438 504 33,000  Level Albuquerque Center
09:46AM 34.4642 -102.7394 112° Southeast 437 503 33,000  Level Albuquerque Center
09:47AM 34.4506 -102.5981 97° East 432 497 33,000  Level Albuquerque Center
09:48AM 34.4464 -102.4536 92° East 432 497 33,000  Level Albuquerque Center
09:49AM 34.4353 -102.3081 95° East 434 499 33,000  Level Albuquerque Center
09:50AM 34.4194 -102.1317 96° East 439 505 33,000  Level Albuquerque Center
09:51AM 34.4044 -101.9892 97° East 434 499 33,000  Level Albuquerque Center
09:52AM 34.3900 -101.8447 97° East 434 499 33,000  Level Albuquerque Center
09:53AM 34.3750 -101.7022 97° East 432 497 33,000  Level Albuquerque Center
09:54AM 34.3592 -101.5542 97° East 430 495 33,000  Level Fort Worth Center
09:55AM 34.3433 -101.4050 97° East 441 507 33,000  Level Fort Worth Center
09:56AM 34.3247 -101.2608 99° East 441 507 33,000  Level Fort Worth Center
09:58AM 34.2900 -100.9578 98° East 453 521 33,000  Level Fort Worth Center
09:59AM 34.2608 -100.8058 103° East 453 521 33,000  Level Fort Worth Center
10:00AM 34.2253 -100.6461 105° East 459 528 33,000  Level Fort Worth Center
10:01AM 34.1875 -100.4942 107° East 471 542 33,000  Level Fort Worth Center
10:02AM 34.1575 -100.3525 104° East 479 551 33,000 -360 Level Fort Worth Center
10:03AM 34.1172 -100.1981 107° East 479 551 32,300 -1,020 Descending Fort Worth Center
10:04AM 34.0811 -100.0364 105° East 484 557 31,000 -660 Descending Fort Worth Center
10:05AM 34.0408 -99.8622 106° East 484 557 31,000  Level Fort Worth Center
10:06AM 34.0022 -99.7008 106° East 484 557 31,000  Level Fort Worth Center
10:07AM 33.9631 -99.5447 107° East 484 557 31,000  Level Fort Worth Center
10:08AM 33.9261 -99.3833 105° East 489 563 31,000  Level Fort Worth Center
10:09AM 33.8867 -99.2250 107° East 489 563 31,000  Level Fort Worth Center
10:10AM 33.8494 -99.0667 106° East 494 568 31,000  Level Fort Worth Center
10:11AM 33.8114 -98.9258 108° East 494 568 31,000  Level Fort Worth Center
10:12AM 33.7717 -98.7678 107° East 494 568 31,000 -360 Level Fort Worth Center
10:13AM 33.7169 -98.6072 112° Southeast 483 556 30,300 -1,560 Descending Fort Worth Center
10:14AM 33.6661 -98.4592 112° Southeast 471 542 27,900 -2,520 Descending Fort Worth Center
10:15AM 33.6211 -98.3214 111° Southeast 476 548 25,400 -2,520 Descending Fort Worth Center
10:16AM 33.5678 -98.1714 113° Southeast 476 548 22,900 -2,520 Descending Fort Worth Center
10:17AM 33.5164 -98.0239 113° Southeast 476 548 20,400 -2,460 Descending Fort Worth Center
10:18AM 33.4650 -97.8817 113° Southeast 450 518 18,000 -2,220 Descending Fort Worth Center
10:19AM 33.4256 -97.7694 113° Southeast 409 471 16,000 -1,920 Descending Fort Worth Center
10:20AM 33.3925 -97.6697 112° Southeast 376 433 14,200 -2,100 Descending Fort Worth Center
10:21AM 33.3114 -97.5575 131° Southeast 370 426 11,900 -1,620 Descending Fort Worth Center
10:22AM 33.2444 -97.4781 135° Southeast 370 426 11,000 -480 Descending Fort Worth Center
10:23AM 33.1631 -97.3836 136° Southeast 376 433 11,000  Level Fort Worth Center
10:24AM 33.0942 -97.3044 136° Southeast 376 433 11,000  Level Fort Worth Center
10:25AM 33.0169 -97.2153 136° Southeast 362 417 11,000  Level Fort Worth Center
10:26AM 32.9625 -97.1486 134° Southeast 325 374 11,000 -1,500 Level Fort Worth Center
10:27AM 32.8975 -97.0744 136° Southeast 304 350 8,100 -2,640 Descending Fort Worth Center
10:28AM 32.8500 -97.0000 127° Southeast 286 329 6,100 -1,800 Descending Dallas / Fort Worth TRACON
10:29AM 32.8167 -96.9333 121° Southeast 279 321 5,000 -600 Descending Dallas / Fort Worth TRACON
10:30AM 32.7667 -96.8667 132° Southeast 259 298 4,900 -480 Descending Dallas / Fort Worth TRACON
10:31AM 32.7167 -96.8000 132° Southeast 224 258 4,000 -480 Descending Dallas / Fort Worth TRACON
10:32AM 32.6833 -96.7667 140° Southeast 198 228 4,000  Level Dallas / Fort Worth TRACON
10:33AM 32.6333 -96.7167 140° Southeast 190 219 4,000 -540 Level Dallas / Fort Worth TRACON
10:34AM 32.6333 -96.6667 90° East 188 216 3,000 -540 Descending Dallas / Fort Worth TRACON
10:35AM 32.6833 -96.6667 360° North 161 185 3,000  Level Dallas / Fort Worth TRACON
10:36AM 32.7167 -96.7000 320° Northwest 159 183 3,000  Level Dallas / Fort Worth TRACON